createdAt,value
2018-06-19T00:00:23.736Z,2.53
2018-06-19T00:02:51.199Z,2.53
2018-06-19T00:05:18.713Z,5.20
2018-06-19T00:07:46.118Z,3.03
2018-06-19T00:10:14.066Z,5.70
2018-06-19T00:12:41.551Z,6.63
2018-06-19T00:15:09.032Z,4.17
2018-06-19T00:17:36.590Z,3.07
2018-06-19T00:20:04.060Z,6.20
2018-06-19T00:22:31.527Z,5.27
2018-06-19T00:24:58.985Z,5.87
2018-06-19T00:27:26.446Z,5.50
2018-06-19T00:29:53.917Z,5.57
2018-06-19T00:32:21.369Z,3.33
2018-06-19T00:34:48.827Z,3.80
2018-06-19T00:39:47.722Z,3.13
2018-06-19T00:42:15.199Z,5.37
2018-06-19T00:44:42.675Z,2.07
2018-06-19T00:47:10.139Z,4.83
2018-06-19T00:49:37.592Z,3.80
2018-06-19T00:52:05.053Z,4.00
2018-06-19T00:54:32.512Z,5.67
2018-06-19T00:56:59.976Z,5.63
2018-06-19T00:59:27.430Z,6.17
2018-06-19T01:01:54.900Z,3.80
2018-06-19T01:04:22.355Z,4.57
2018-06-19T01:06:49.834Z,4.80
2018-06-19T01:09:17.388Z,4.47
2018-06-19T01:11:44.830Z,5.27
2018-06-19T01:14:12.312Z,2.67
2018-06-19T01:16:40.091Z,7.87
2018-06-19T01:19:07.551Z,7.00
2018-06-19T01:21:35.029Z,2.37
2018-06-19T01:24:02.517Z,5.20
2018-06-19T01:26:29.994Z,4.67
2018-06-19T01:28:57.469Z,3.07
2018-06-19T01:31:24.950Z,3.73
2018-06-19T01:33:52.401Z,5.23
2018-06-19T01:36:19.864Z,4.80
2018-06-19T01:38:47.316Z,4.43
2018-06-19T01:41:14.773Z,6.83
2018-06-19T01:43:42.231Z,6.77
2018-06-19T01:46:09.697Z,2.23
2018-06-19T01:48:37.172Z,7.87
2018-06-19T01:51:04.631Z,5.73
2018-06-19T01:53:32.115Z,8.50
2018-06-19T01:55:59.568Z,3.70
2018-06-19T01:58:27.028Z,5.13
2018-06-19T02:00:54.470Z,5.23
2018-06-19T02:03:21.946Z,3.77
2018-06-19T02:05:49.404Z,3.90
2018-06-19T02:08:16.889Z,6.73
2018-06-19T02:10:44.361Z,4.77
2018-06-19T02:13:11.825Z,6.43
2018-06-19T02:15:39.288Z,3.23
2018-06-19T02:18:07.113Z,3.83
2018-06-19T02:20:34.609Z,6.07
2018-06-19T02:23:02.054Z,2.77
2018-06-19T02:25:29.520Z,6.37
2018-06-19T02:27:56.984Z,4.80
2018-06-19T02:30:24.443Z,4.47
2018-06-19T02:32:52.023Z,4.90
2018-06-19T02:35:19.487Z,5.23
2018-06-19T02:37:47.041Z,6.00
2018-06-19T02:40:15.264Z,4.43
2018-06-19T02:42:43.604Z,3.80
2018-06-19T02:45:11.058Z,5.80
2018-06-19T02:47:38.522Z,5.80
2018-06-19T02:50:05.991Z,3.60
2018-06-19T02:52:33.552Z,4.30
2018-06-19T02:55:01.156Z,7.50
2018-06-19T02:57:29.398Z,5.90
2018-06-19T02:59:56.960Z,7.23
2018-06-19T03:02:24.420Z,4.20
2018-06-19T03:04:51.869Z,6.57
2018-06-19T03:07:19.442Z,5.27
2018-06-19T03:09:46.927Z,3.80
2018-06-19T03:12:14.379Z,5.43
2018-06-19T03:14:41.942Z,3.13
2018-06-19T03:17:09.498Z,5.07
2018-06-19T03:19:37.065Z,3.93
2018-06-19T03:22:04.524Z,4.40
2018-06-19T03:24:32.827Z,3.13
2018-06-19T03:27:00.295Z,5.57
2018-06-19T03:29:28.547Z,4.60
2018-06-19T03:31:56.012Z,5.10
2018-06-19T03:34:23.489Z,6.73
2018-06-19T03:36:50.967Z,3.83
2018-06-19T03:39:19.207Z,3.77
2018-06-19T03:41:46.663Z,3.07
2018-06-19T03:44:14.119Z,5.63
2018-06-19T03:46:41.595Z,2.73
2018-06-19T03:49:09.084Z,2.47
2018-06-19T03:51:36.545Z,3.87
2018-06-19T03:54:04.095Z,7.27
2018-06-19T03:56:31.662Z,4.03
2018-06-19T03:58:59.116Z,4.03
2018-06-19T04:01:26.575Z,3.93
2018-06-19T04:03:54.151Z,4.00
2018-06-19T04:06:21.617Z,4.77
2018-06-19T04:08:49.069Z,5.47
2018-06-19T04:11:16.527Z,3.73
2018-06-19T04:13:44.001Z,3.90
2018-06-19T04:16:11.472Z,3.03
2018-06-19T04:18:38.948Z,4.90
2018-06-19T04:21:08.102Z,5.73
2018-06-19T04:23:35.576Z,2.97
2018-06-19T04:26:03.028Z,5.63
2018-06-19T04:28:30.488Z,4.87
2018-06-19T04:30:57.945Z,2.97
2018-06-19T04:33:25.471Z,5.10
2018-06-19T04:35:53.129Z,3.13
2018-06-19T04:38:21.367Z,3.17
2018-06-19T04:40:48.821Z,5.67
2018-06-19T04:43:16.283Z,3.63
2018-06-19T04:45:43.762Z,5.37
2018-06-19T04:48:11.226Z,5.10
2018-06-19T04:50:38.778Z,3.57
2018-06-19T04:53:06.248Z,3.57
2018-06-19T04:55:33.710Z,3.53
2018-06-19T04:58:01.271Z,5.47
2018-06-19T05:00:28.859Z,2.77
2018-06-19T05:02:56.308Z,6.20
2018-06-19T05:05:23.767Z,5.10
2018-06-19T05:07:51.224Z,3.57
2018-06-19T05:10:18.788Z,3.10
2018-06-19T05:12:46.406Z,5.07
2018-06-19T05:15:13.827Z,2.70
2018-06-19T05:17:41.290Z,3.83
2018-06-19T05:20:09.559Z,3.92
2018-06-19T05:22:36.978Z,6.07
2018-06-19T05:25:04.439Z,4.13
2018-06-19T05:27:31.903Z,5.73
2018-06-19T05:29:59.360Z,3.30
2018-06-19T05:32:26.861Z,4.27
2018-06-19T05:34:54.328Z,2.67
2018-06-19T05:37:22.516Z,6.80
2018-06-19T05:39:49.969Z,6.57
2018-06-19T05:42:18.560Z,6.17
2018-06-19T05:44:46.110Z,4.00
2018-06-19T05:47:13.680Z,4.30
2018-06-19T05:49:41.137Z,7.60
2018-06-19T05:52:08.615Z,4.73
2018-06-19T05:54:36.095Z,2.83
2018-06-19T05:57:04.331Z,4.57
2018-06-19T05:59:31.807Z,5.27
2018-06-19T06:01:59.381Z,5.60
2018-06-19T06:04:27.862Z,4.63
2018-06-19T06:06:55.332Z,5.23
2018-06-19T06:09:22.796Z,2.20
2018-06-19T06:11:50.248Z,3.70
2018-06-19T06:14:17.732Z,5.00
2018-06-19T06:16:45.297Z,5.07
2018-06-19T06:19:13.441Z,2.80
2018-06-19T06:21:40.927Z,2.80
2018-06-19T06:24:08.385Z,3.73
2018-06-19T06:26:35.946Z,5.27
2018-06-19T06:29:03.407Z,3.23
2018-06-19T06:31:30.872Z,4.13
2018-06-19T06:33:59.861Z,6.20
2018-06-19T06:36:27.330Z,3.83
2018-06-19T06:38:54.795Z,5.27
2018-06-19T06:41:22.268Z,4.77
2018-06-19T06:43:50.540Z,5.37
2018-06-19T06:46:18.004Z,4.13
2018-06-19T06:48:47.044Z,3.43
2018-06-19T06:51:14.653Z,7.50
2018-06-19T06:53:42.213Z,4.27
2018-06-19T06:56:09.788Z,4.07
2018-06-19T06:58:37.255Z,3.53
2018-06-19T07:01:04.724Z,3.77
2018-06-19T07:03:32.183Z,2.63
2018-06-19T07:05:59.648Z,2.90
2018-06-19T07:08:28.630Z,4.13
2018-06-19T07:10:56.071Z,5.73
2018-06-19T07:13:23.561Z,3.50
2018-06-19T07:15:51.015Z,4.47
2018-06-19T07:18:18.483Z,4.93
2018-06-19T07:20:46.654Z,3.97
2018-06-19T07:23:14.109Z,3.53
2018-06-19T07:25:41.679Z,4.00
2018-06-19T07:28:09.232Z,3.97
2018-06-19T07:30:36.699Z,5.50
2018-06-19T07:33:04.151Z,3.83
2018-06-19T07:35:31.627Z,3.77
2018-06-19T07:37:59.136Z,4.93
2018-06-19T07:40:26.552Z,3.60
2018-06-19T07:42:54.110Z,3.27
2018-06-19T07:45:21.680Z,4.10
2018-06-19T07:47:49.138Z,2.03
2018-06-19T07:50:16.600Z,2.70
2018-06-19T07:52:44.047Z,3.30
2018-06-19T07:55:11.519Z,3.37
2018-06-19T07:57:38.990Z,4.03
2018-06-19T08:00:06.919Z,3.57
2018-06-19T08:02:34.428Z,3.90
2018-06-19T08:05:01.890Z,2.67
2018-06-19T08:07:29.457Z,2.63
2018-06-19T08:09:56.909Z,6.23
2018-06-19T08:12:24.379Z,7.53
2018-06-19T08:14:52.648Z,3.47
2018-06-19T08:17:20.108Z,4.20
2018-06-19T08:19:47.555Z,2.67
2018-06-19T08:22:15.036Z,2.77
2018-06-19T08:24:42.494Z,2.67
2018-06-19T08:27:10.715Z,4.47
2018-06-19T08:29:38.945Z,3.87
2018-06-19T08:32:06.422Z,3.37
2018-06-19T08:34:33.899Z,4.10
2018-06-19T08:37:01.362Z,4.37
2018-06-19T08:39:29.588Z,2.87
2018-06-19T08:41:57.050Z,3.47
2018-06-19T08:44:24.509Z,4.77
2018-06-19T08:46:51.972Z,3.20
2018-06-19T08:49:19.429Z,5.80
2018-06-19T08:51:46.939Z,5.07
2018-06-19T08:54:14.426Z,3.80
2018-06-19T08:56:41.879Z,4.97
2018-06-19T08:59:10.123Z,3.53
2018-06-19T09:01:37.583Z,3.53
2018-06-19T09:04:05.064Z,2.17
2018-06-19T09:06:33.204Z,3.90
2018-06-19T09:09:00.664Z,2.13
2018-06-19T09:11:28.131Z,5.23
2018-06-19T09:13:55.589Z,2.20
2018-06-19T09:16:23.102Z,3.43
2018-06-19T09:18:50.650Z,3.63
2018-06-19T09:21:18.228Z,3.07
2018-06-19T09:23:45.679Z,2.40
2018-06-19T09:26:13.244Z,4.20
2018-06-19T09:28:40.710Z,2.77
2018-06-19T09:31:08.274Z,1.60
2018-06-19T09:33:35.733Z,2.63
2018-06-19T09:36:03.187Z,2.63
2018-06-19T09:38:30.657Z,2.03
2018-06-19T09:40:58.122Z,3.23
2018-06-19T09:43:25.588Z,1.93
2018-06-19T09:45:53.149Z,2.30
2018-06-19T09:48:20.602Z,3.00
2018-06-19T09:50:48.074Z,2.80
2018-06-19T09:53:15.539Z,1.80
2018-06-19T09:55:42.991Z,3.10
2018-06-19T09:58:10.500Z,2.70
2018-06-19T10:00:37.924Z,2.07
2018-06-19T10:03:05.393Z,5.60
2018-06-19T10:05:32.932Z,1.83
2018-06-19T10:08:01.101Z,2.60
2018-06-19T10:10:28.551Z,2.07
2018-06-19T10:12:56.403Z,2.07
2018-06-19T10:15:24.612Z,1.67
2018-06-19T10:17:52.078Z,1.57
2018-06-19T10:20:19.564Z,1.67
2018-06-19T10:22:47.119Z,2.67
2018-06-19T10:25:14.584Z,2.93
2018-06-19T10:27:42.051Z,1.80
2018-06-19T10:30:09.515Z,1.83
2018-06-19T10:32:36.979Z,2.30
2018-06-19T10:35:04.502Z,2.20
2018-06-19T10:37:32.002Z,3.13
2018-06-19T10:39:59.456Z,3.27
2018-06-19T10:42:26.928Z,1.90
2018-06-19T10:44:54.471Z,4.07
2018-06-19T10:47:21.938Z,3.40
2018-06-19T10:49:49.393Z,1.87
2018-06-19T10:52:16.869Z,2.53
2018-06-19T10:54:44.324Z,2.30
2018-06-19T10:57:11.891Z,2.33
2018-06-19T10:59:39.361Z,2.07
2018-06-19T11:02:06.936Z,1.50
2018-06-19T11:04:34.494Z,1.97
2018-06-19T11:07:03.460Z,1.73
2018-06-19T11:09:30.925Z,2.07
2018-06-19T11:11:58.409Z,3.57
2018-06-19T11:14:25.879Z,2.20
2018-06-19T11:16:53.333Z,2.43
2018-06-19T11:19:20.808Z,2.47
2018-06-19T11:21:48.257Z,1.70
2018-06-19T11:24:15.726Z,2.30
2018-06-19T11:26:44.691Z,2.53
2018-06-19T11:29:12.151Z,2.27
2018-06-19T11:31:39.637Z,2.33
2018-06-19T11:34:07.201Z,2.43
2018-06-19T11:36:34.670Z,2.13
2018-06-19T11:39:02.185Z,1.90
2018-06-19T11:41:29.699Z,2.37
2018-06-19T11:43:57.925Z,2.07
2018-06-19T11:46:25.423Z,2.93
2018-06-19T11:48:52.886Z,1.50
2018-06-19T11:51:20.482Z,1.80
2018-06-19T11:53:48.032Z,1.67
2018-06-19T11:56:15.499Z,1.63
2018-06-19T11:58:42.952Z,1.57
2018-06-19T12:01:10.428Z,2.87
2018-06-19T12:03:37.893Z,1.83
2018-06-19T12:06:06.125Z,2.27
2018-06-19T12:08:33.579Z,2.27
2018-06-19T12:11:01.039Z,2.70
2018-06-19T12:13:28.507Z,2.80
2018-06-19T12:15:55.999Z,1.90
2018-06-19T12:18:23.568Z,1.93
2018-06-19T12:20:52.109Z,1.70
2018-06-19T12:23:20.342Z,2.00
2018-06-19T12:25:47.787Z,3.10
2018-06-19T12:28:15.362Z,1.90
2018-06-19T12:30:42.811Z,1.80
2018-06-19T12:33:10.267Z,1.90
2018-06-19T12:35:37.739Z,2.10
2018-06-19T12:38:05.305Z,2.70
2018-06-19T12:40:32.772Z,2.60
2018-06-19T12:43:00.302Z,1.70
2018-06-19T12:45:27.796Z,1.77
2018-06-19T12:47:55.363Z,2.00
2018-06-19T12:50:33.869Z,2.43
2018-06-19T12:53:13.236Z,2.77
2018-06-19T12:55:41.492Z,1.70
2018-06-19T12:58:08.946Z,2.37
2018-06-19T13:00:36.399Z,2.10
2018-06-19T13:03:03.887Z,2.00
2018-06-19T13:05:43.440Z,2.07
2018-06-19T13:08:11.664Z,1.60
2018-06-19T13:10:39.156Z,1.77
2018-06-19T13:16:14.399Z,2.37
2018-06-19T13:18:53.796Z,3.00
2018-06-19T13:21:22.028Z,1.90
2018-06-19T13:23:49.573Z,3.57
2018-06-19T13:26:17.036Z,1.77
2018-06-19T13:28:44.534Z,1.87
2018-06-19T13:34:12.405Z,2.65
2018-06-19T13:36:40.630Z,2.10
2018-06-19T13:39:08.103Z,2.63
2018-06-19T13:41:47.595Z,2.30
2018-06-19T13:44:48.500Z,6.93
2018-06-19T13:47:16.747Z,3.63
2018-06-19T13:49:44.265Z,5.33
2018-06-19T13:52:11.708Z,4.10
2018-06-19T13:54:39.988Z,2.17
2018-06-19T13:57:08.226Z,3.67
2018-06-19T13:59:35.678Z,2.23
2018-06-19T14:02:03.159Z,1.67
2018-06-19T14:04:30.613Z,1.70
2018-06-19T14:06:58.064Z,1.93
2018-06-19T14:09:25.536Z,2.03
2018-06-19T14:12:04.836Z,10.23
2018-06-19T14:14:32.332Z,2.80
2018-06-19T14:16:59.807Z,2.93
2018-06-19T14:19:27.330Z,2.40
2018-06-19T14:21:54.743Z,2.07
2018-06-19T14:24:22.211Z,1.30
2018-06-19T14:26:51.201Z,1.67
2018-06-19T14:29:18.680Z,2.40
2018-06-19T14:31:46.916Z,2.10
2018-06-19T14:34:14.431Z,1.30
2018-06-19T14:36:41.872Z,1.50
2018-06-19T14:39:10.138Z,1.90
2018-06-19T14:41:37.584Z,1.40
2018-06-19T14:44:05.050Z,1.40
2018-06-19T14:46:32.504Z,1.33
2018-06-19T14:49:00.251Z,1.90
2018-06-19T14:51:27.754Z,1.20
2018-06-19T14:53:55.222Z,2.80
2018-06-19T14:56:22.699Z,1.43
2018-06-19T14:58:50.937Z,3.60
2018-06-19T15:01:18.473Z,1.80
2018-06-19T15:03:45.993Z,1.40
2018-06-19T15:06:13.470Z,1.90
2018-06-19T15:08:40.932Z,1.20
2018-06-19T15:11:09.900Z,1.60
2018-06-19T15:13:37.370Z,1.13
2018-06-19T15:16:04.944Z,1.40
2018-06-19T15:18:32.407Z,2.13
2018-06-19T15:20:59.868Z,1.30
2018-06-19T15:23:27.331Z,1.30
2018-06-19T15:25:54.884Z,1.50
2018-06-19T15:30:45.815Z,1.40
2018-06-19T15:33:13.276Z,2.13
2018-06-19T15:35:40.741Z,1.70
2018-06-19T15:38:08.208Z,2.00
2018-06-19T15:40:35.670Z,1.60
2018-06-19T15:43:03.127Z,1.70
2018-06-19T15:45:30.699Z,1.93
2018-06-19T15:47:58.152Z,2.87
2018-06-19T15:50:25.615Z,1.37
2018-06-19T15:52:53.083Z,1.50
2018-06-19T15:55:20.653Z,1.20
2018-06-19T15:57:48.119Z,1.33
2018-06-19T16:00:15.583Z,1.40
2018-06-19T16:02:43.047Z,1.30
2018-06-19T16:05:10.605Z,1.73
2018-06-19T16:07:38.074Z,1.37
2018-06-19T16:10:05.527Z,1.17
2018-06-19T16:12:33.812Z,1.07
2018-06-19T16:15:01.281Z,1.43
2018-06-19T16:17:29.499Z,1.47
2018-06-19T16:19:57.003Z,1.47
2018-06-19T16:22:24.471Z,1.33
2018-06-19T16:24:51.939Z,1.40
2018-06-19T16:27:19.396Z,0.90
2018-06-19T16:29:46.976Z,1.17
2018-06-19T16:32:14.412Z,1.57
2018-06-19T16:34:41.980Z,1.13
2018-06-19T16:37:09.439Z,1.87
2018-06-19T16:39:36.991Z,1.10
2018-06-19T16:42:04.516Z,1.20
2018-06-19T16:44:32.019Z,2.00
2018-06-19T16:47:00.276Z,1.10
2018-06-19T16:49:27.791Z,1.23
2018-06-19T16:51:55.340Z,1.90
2018-06-19T16:54:22.819Z,1.20
2018-06-19T16:56:51.087Z,1.30
2018-06-19T16:59:18.647Z,1.13
2018-06-19T17:01:46.684Z,1.10
2018-06-19T17:04:14.139Z,1.27
2018-06-19T17:06:41.609Z,1.50
2018-06-19T17:09:09.839Z,1.10
2018-06-19T17:11:38.842Z,0.90
2018-06-19T17:14:07.527Z,1.20
2018-06-19T17:16:34.991Z,1.43
2018-06-19T17:19:02.646Z,1.50
2018-06-19T17:21:30.123Z,1.30
2018-06-19T17:23:58.385Z,0.93
2018-06-19T17:26:25.889Z,1.23
2018-06-19T17:28:54.120Z,1.20
2018-06-19T17:31:22.371Z,1.37
2018-06-19T17:33:49.866Z,1.47
2018-06-19T17:36:17.315Z,1.33
2018-06-19T17:38:44.778Z,1.27
2018-06-19T17:41:12.241Z,1.33
2018-06-19T17:43:39.715Z,1.20
2018-06-19T17:46:07.284Z,0.80
2018-06-19T17:48:34.860Z,1.10
2018-06-19T17:51:02.328Z,1.17
2018-06-19T17:53:31.303Z,1.90
2018-06-19T17:55:58.836Z,1.23
2018-06-19T17:58:26.312Z,1.27
2018-06-19T18:00:53.783Z,1.20
2018-06-19T18:03:21.235Z,1.30
2018-06-19T18:05:48.696Z,1.00
2018-06-19T18:08:16.441Z,1.10
2018-06-19T18:10:43.998Z,1.77
2018-06-19T18:13:11.423Z,1.50
2018-06-19T18:15:39.662Z,1.53
2018-06-19T18:18:07.142Z,2.80
2018-06-19T18:20:34.600Z,1.30
2018-06-19T18:23:02.072Z,1.10
2018-06-19T18:25:30.568Z,1.50
2018-06-19T18:27:58.141Z,1.63
2018-06-19T18:30:25.603Z,0.90
2018-06-19T18:32:54.580Z,2.40
2018-06-19T18:35:22.148Z,1.30
2018-06-19T18:37:49.676Z,1.23
2018-06-19T18:40:18.592Z,1.30
2018-06-19T18:42:46.061Z,2.70
2018-06-19T18:45:13.540Z,1.30
2018-06-19T18:47:41.009Z,1.77
2018-06-19T18:50:08.565Z,1.43
2018-06-19T18:52:36.047Z,1.33
2018-06-19T18:55:04.323Z,1.40
2018-06-19T18:57:32.548Z,1.20
2018-06-19T19:00:00.024Z,1.60
2018-06-19T19:02:27.527Z,1.40
2018-06-19T19:04:56.519Z,2.03
2018-06-19T19:07:23.978Z,1.30
2018-06-19T19:09:51.465Z,1.37
2018-06-19T19:12:19.811Z,2.40
2018-06-19T19:14:47.267Z,2.20
2018-06-19T19:17:30.402Z,1.60
2018-06-19T19:19:58.641Z,1.43
2018-06-19T19:22:26.100Z,1.70
2018-06-19T19:24:53.789Z,1.33
2018-06-19T19:30:17.075Z,1.90
2018-06-19T19:32:44.557Z,1.17
2018-06-19T19:35:12.009Z,1.37
2018-06-19T19:40:33.628Z,1.40
2018-06-19T19:43:01.086Z,1.60
2018-06-19T19:45:28.554Z,1.40
2018-06-19T19:48:12.732Z,1.53
2018-06-19T19:50:40.971Z,1.70
2018-06-19T19:53:08.546Z,1.30
2018-06-19T19:55:36.010Z,1.40
2018-06-19T19:58:18.350Z,1.20
2018-06-19T20:00:46.696Z,1.60
2018-06-19T20:03:14.162Z,1.80
2018-06-19T20:05:42.084Z,1.07
2018-06-19T20:08:09.544Z,1.50
2018-06-19T20:10:37.068Z,1.30
2018-06-19T20:13:04.618Z,1.77
2018-06-19T20:15:33.082Z,2.00
2018-06-19T20:18:00.669Z,1.60
2018-06-19T20:20:28.129Z,1.33
2018-06-19T20:22:55.582Z,1.40
2018-06-19T20:25:23.044Z,2.10
2018-06-19T20:27:50.571Z,1.47
2018-06-19T20:30:18.032Z,1.70
2018-06-19T20:32:45.544Z,1.13
2018-06-19T20:35:13.001Z,1.67
2018-06-19T20:37:40.473Z,2.30
2018-06-19T20:40:08.705Z,1.90
2018-06-19T20:42:36.173Z,1.93
2018-06-19T20:45:03.640Z,2.30
2018-06-19T20:47:31.111Z,1.87
2018-06-19T20:49:58.580Z,1.70
2018-06-19T20:52:26.056Z,1.40
2018-06-19T20:54:53.615Z,1.73
2018-06-19T20:57:21.069Z,2.20
2018-06-19T20:59:48.547Z,1.50
2018-06-19T21:02:16.111Z,2.57
2018-06-19T21:04:44.348Z,2.10
2018-06-19T21:07:11.796Z,1.20
2018-06-19T21:09:39.263Z,1.80
2018-06-19T21:12:06.767Z,1.50
2018-06-19T21:14:34.224Z,1.70
2018-06-19T21:17:01.796Z,1.60
2018-06-19T21:19:29.361Z,1.50
2018-06-19T21:21:56.842Z,1.73
2018-06-19T21:24:25.811Z,2.13
2018-06-19T21:26:53.267Z,1.97
2018-06-19T21:29:20.732Z,1.27
2018-06-19T21:31:48.188Z,1.70
2018-06-19T21:34:15.655Z,1.90
2018-06-19T21:36:43.120Z,1.80
2018-06-19T21:39:10.571Z,1.30
2018-06-19T21:41:38.032Z,2.30
2018-06-19T21:44:05.501Z,1.50
2018-06-19T21:46:32.960Z,1.40
2018-06-19T21:49:00.417Z,1.20
2018-06-19T21:51:27.883Z,1.80
2018-06-19T21:53:55.343Z,3.27
2018-06-19T21:56:22.800Z,1.60
2018-06-19T21:58:50.255Z,1.17
2018-06-19T22:01:17.712Z,1.67
2018-06-19T22:03:45.167Z,1.60
2018-06-19T22:06:12.626Z,1.23
2018-06-19T22:08:40.093Z,1.30
2018-06-19T22:11:07.557Z,1.90
2018-06-19T22:13:35.060Z,1.50
2018-06-19T22:16:02.472Z,1.70
2018-06-19T22:18:29.985Z,2.43
2018-06-19T22:20:57.444Z,3.07
2018-06-19T22:23:25.074Z,1.60
2018-06-19T22:25:52.566Z,1.77
2018-06-19T22:28:20.038Z,1.50
2018-06-19T22:30:47.625Z,1.50
2018-06-19T22:33:16.699Z,1.57
2018-06-19T22:35:44.167Z,2.67
2018-06-19T22:38:11.724Z,1.20
2018-06-19T22:40:39.173Z,1.83
2018-06-19T22:43:06.668Z,1.23
2018-06-19T22:45:34.194Z,2.97
2018-06-19T22:48:01.643Z,2.27
2018-06-19T22:50:29.100Z,2.20
2018-06-19T22:52:56.664Z,1.37
2018-06-19T22:55:24.046Z,1.97
2018-06-19T22:57:51.504Z,1.30
2018-06-19T23:00:18.979Z,1.30
2018-06-19T23:02:46.424Z,1.40
2018-06-19T23:05:13.892Z,1.50
2018-06-19T23:07:41.347Z,1.40
2018-06-19T23:10:08.823Z,1.33
2018-06-19T23:12:36.280Z,1.50
2018-06-19T23:15:03.742Z,1.87
2018-06-19T23:17:31.235Z,3.73
2018-06-19T23:20:01.049Z,1.90
2018-06-19T23:22:30.041Z,1.77
2018-06-19T23:24:57.497Z,2.30
2018-06-19T23:27:24.984Z,1.93
2018-06-19T23:29:53.210Z,1.80
2018-06-19T23:32:20.666Z,1.20
2018-06-19T23:34:48.122Z,3.33
2018-06-19T23:37:15.591Z,1.80
2018-06-19T23:39:43.052Z,1.10
2018-06-19T23:42:10.553Z,1.70
2018-06-19T23:44:38.111Z,1.57
2018-06-19T23:47:05.674Z,1.70
2018-06-19T23:49:33.139Z,1.23
2018-06-19T23:52:00.700Z,1.47
2018-06-19T23:54:28.161Z,3.30
2018-06-19T23:56:55.727Z,1.47
2018-06-19T23:59:23.211Z,1.40
